Time;durP1;ratioP1;P1;durP2;ratioP2;P2;SDS_P1;SDS_P2;PMS_P1;PMS_P2;Temp;Humidity;BMP_temperature;BMP_pressure;BME280_temperature;BME280_humidity;BME280_pressure;Samples;Min_cycle;Max_cycle;Signal;HPM_P1;HPM_P2
2023/04/18 00:01:02;;;;;;;11.13;6.80;;;;;;;6.03;56.04;100641.84;10485467;28;20611;-61
2023/04/18 00:06:04;;;;;;;12.50;7.35;;;;;;;5.85;56.05;100647.56;10471580;28;20045;-61
2023/04/18 00:11:06;;;;;;;12.43;7.47;;;;;;;5.81;56.43;100646.81;10469383;28;20054;-61
2023/04/18 00:16:08;;;;;;;10.70;7.35;;;;;;;5.75;56.55;100644.41;10466291;28;20039;-61
2023/04/18 00:21:10;;;;;;;13.00;7.05;;;;;;;5.74;56.68;100634.91;10469213;28;20125;-61
2023/04/18 00:26:12;;;;;;;10.85;7.00;;;;;;;5.67;56.85;100641.19;10483729;28;20043;-61
2023/04/18 00:31:14;;;;;;;11.13;7.63;;;;;;;5.72;57.04;100630.66;10453202;28;20322;-61
2023/04/18 00:36:16;;;;;;;9.80;6.85;;;;;;;5.76;56.90;100634.88;10458196;28;20048;-61
2023/04/18 00:41:20;;;;;;;10.90;7.30;;;;;;;5.72;56.94;100636.69;10454258;28;20049;-61
2023/04/18 00:46:22;;;;;;;12.32;6.93;;;;;;;5.67;57.02;100635.13;10448253;28;20374;-61
2023/04/18 00:51:24;;;;;;;12.73;7.05;;;;;;;5.62;57.16;100632.66;10465495;28;20051;-61
2023/04/18 00:56:28;;;;;;;11.80;7.72;;;;;;;5.59;57.47;100630.16;10451057;28;20408;-61
2023/04/18 01:01:32;;;;;;;11.23;7.28;;;;;;;5.50;57.48;100628.69;10464803;28;20484;-61
2023/04/18 01:06:35;;;;;;;13.05;7.40;;;;;;;5.45;57.31;100633.13;10461819;28;20056;-61
2023/04/18 01:11:37;;;;;;;12.93;7.63;;;;;;;5.40;57.66;100623.78;10467868;28;20445;-61
2023/04/18 01:16:39;;;;;;;15.23;7.45;;;;;;;5.45;57.69;100620.16;10445676;28;20063;-61
2023/04/18 01:21:42;;;;;;;14.35;7.68;;;;;;;5.41;57.77;100615.13;10485345;28;20535;-61
2023/04/18 01:26:47;;;;;;;17.23;7.45;;;;;;;5.36;57.71;100614.38;10467283;28;20493;-61
2023/04/18 01:31:48;;;;;;;13.20;7.78;;;;;;;5.29;57.84;100612.84;10465954;28;20048;-61
2023/04/18 01:36:50;;;;;;;13.07;7.80;;;;;;;5.20;57.48;100616.56;10468095;28;20523;-61
2023/04/18 01:41:52;;;;;;;12.93;7.57;;;;;;;4.93;57.80;100613.81;10473938;28;20891;-61
2023/04/18 01:46:54;;;;;;;13.10;7.93;;;;;;;4.62;58.42;100612.00;10466079;28;20461;-61
2023/04/18 01:51:56;;;;;;;11.45;8.07;;;;;;;4.71;58.69;100616.13;10458539;28;20036;-61
2023/04/18 01:56:58;;;;;;;13.07;7.85;;;;;;;4.77;58.86;100610.78;10467535;28;20131;-61
2023/04/18 02:01:59;;;;;;;14.52;8.15;;;;;;;4.78;58.65;100607.28;10463710;28;20037;-62
2023/04/18 02:07:01;;;;;;;11.88;7.63;;;;;;;4.74;58.95;100610.03;10471411;28;20127;-61
2023/04/18 02:12:03;;;;;;;11.50;7.40;;;;;;;4.70;59.02;100610.09;10476227;28;20042;-64
2023/04/18 02:17:05;;;;;;;11.75;7.55;;;;;;;4.70;59.02;100611.81;10474883;28;20081;-61
2023/04/18 02:22:07;;;;;;;15.52;8.15;;;;;;;4.67;59.25;100611.91;10454895;28;20037;-61
2023/04/18 02:27:09;;;;;;;12.57;8.02;;;;;;;4.66;59.45;100615.38;10479219;28;20032;-61
2023/04/18 02:32:11;;;;;;;13.10;7.63;;;;;;;4.61;59.23;100618.09;10495279;28;20489;-61
2023/04/18 02:37:16;;;;;;;11.50;8.30;;;;;;;4.58;59.28;100618.16;10464793;28;20044;-61
2023/04/18 02:42:18;;;;;;;13.07;8.20;;;;;;;4.33;59.61;100616.22;10486081;28;20514;-61
2023/04/18 02:47:20;;;;;;;11.63;7.82;;;;;;;4.23;59.85;100615.53;10482198;28;20056;-61
2023/04/18 02:52:24;;;;;;;13.73;8.30;;;;;;;4.21;59.99;100619.91;10494024;28;20423;-61
2023/04/18 02:57:26;;;;;;;14.35;9.20;;;;;;;4.25;59.91;100611.19;10462255;28;20044;-61
2023/04/18 03:02:51;;;;;;;13.35;8.10;;;;;;;4.17;60.16;100612.28;10464363;28;20548;-61
2023/04/18 03:08:12;;;;;;;16.20;8.18;;;;;;;4.10;60.43;100613.28;10459492;28;20101;-61
2023/04/18 03:13:15;;;;;;;12.85;8.77;;;;;;;4.11;60.39;100621.00;10453680;28;20041;-61
2023/04/18 03:18:17;;;;;;;13.77;8.55;;;;;;;4.08;60.51;100618.50;10456701;28;20033;-61
2023/04/18 03:23:20;;;;;;;11.10;7.72;;;;;;;4.15;60.62;100627.00;10453630;28;20380;-61
2023/04/18 03:28:22;;;;;;;12.70;8.55;;;;;;;4.15;60.45;100625.22;10473934;28;20036;-61
2023/04/18 03:33:27;;;;;;;12.15;8.13;;;;;;;4.20;60.37;100617.38;10472658;28;20064;-61
2023/04/18 03:38:40;;;;;;;11.68;8.02;;;;;;;4.13;60.44;100623.59;10495087;28;20708;-61
2023/04/18 03:43:42;;;;;;;12.55;8.25;;;;;;;4.09;60.57;100627.97;10457554;28;20147;-61
2023/04/18 03:48:45;;;;;;;13.23;8.40;;;;;;;4.10;60.36;100627.09;10472026;28;20267;-61
2023/04/18 03:53:47;;;;;;;13.63;8.55;;;;;;;4.15;60.38;100627.00;10451890;28;20471;-61
2023/04/18 03:58:50;;;;;;;11.95;8.38;;;;;;;4.16;60.45;100626.94;10453684;28;20135;-61
2023/04/18 04:03:54;;;;;;;15.07;9.00;;;;;;;4.15;60.38;100627.00;10454484;28;20151;-61
2023/04/18 04:08:58;;;;;;;14.38;8.80;;;;;;;4.11;60.47;100630.53;10470094;28;20052;-61
2023/04/18 04:14:01;;;;;;;12.23;8.45;;;;;;;4.15;60.49;100632.16;10485589;28;20682;-62
2023/04/18 04:19:10;;;;;;;13.27;9.60;;;;;;;4.21;60.35;100638.03;10452529;28;20040;-61
2023/04/18 04:24:19;;;;;;;13.52;8.88;;;;;;;4.17;60.39;100639.00;10472710;28;20044;-62
2023/04/18 04:29:22;;;;;;;13.20;8.57;;;;;;;4.04;60.72;100639.31;10480964;28;20045;-62
2023/04/18 04:34:25;;;;;;;15.35;8.80;;;;;;;4.01;60.70;100647.13;10453055;28;20051;-62
2023/04/18 04:39:28;;;;;;;12.13;9.32;;;;;;;4.06;60.71;100646.16;10451978;28;20433;-62
2023/04/18 04:44:52;;;;;;;17.83;9.10;;;;;;;4.13;60.43;100647.72;10451720;28;20036;-62
2023/04/18 04:49:55;;;;;;;18.48;10.10;;;;;;;4.20;60.43;100644.13;10461841;28;20619;-63
2023/04/18 04:54:57;;;;;;;13.30;9.00;;;;;;;4.35;60.20;100654.09;10450156;28;20040;-62
2023/04/18 05:00:00;;;;;;;14.43;9.43;;;;;;;4.49;59.91;100654.66;10455232;28;20048;-62
2023/04/18 05:05:02;;;;;;;14.25;10.00;;;;;;;4.58;60.04;100651.84;10489241;28;20129;-62
2023/04/18 05:10:04;;;;;;;15.77;9.52;;;;;;;4.81;59.62;100653.00;10470437;28;20048;-62
2023/04/18 05:15:06;;;;;;;18.33;9.95;;;;;;;5.06;59.21;100651.50;10455792;28;20044;-62
2023/04/18 05:20:09;;;;;;;15.63;10.23;;;;;;;5.18;58.73;100657.25;10475078;28;20132;-62
2023/04/18 05:25:12;;;;;;;13.50;9.02;;;;;;;5.26;58.86;100654.44;10473293;28;20036;-62
2023/04/18 05:30:14;;;;;;;13.65;9.40;;;;;;;5.40;58.81;100660.97;10469540;28;20045;-62
2023/04/18 05:35:18;;;;;;;14.15;10.27;;;;;;;5.71;58.58;100652.31;10469388;28;20041;-62
2023/04/18 05:40:20;;;;;;;14.60;10.55;;;;;;;6.00;58.15;100658.34;10471059;28;20047;-62
2023/04/18 05:45:23;;;;;;;16.23;11.95;;;;;;;6.16;57.95;100667.41;10470077;28;20037;-62
2023/04/18 05:50:26;;;;;;;20.23;12.90;;;;;;;6.24;57.75;100660.25;10473392;28;20596;-62
2023/04/18 05:55:28;;;;;;;19.73;13.65;;;;;;;6.29;57.89;100660.97;10466846;28;20443;-62
2023/04/18 06:00:31;;;;;;;21.45;14.45;;;;;;;6.31;58.04;100656.56;10456414;28;20665;-62
2023/04/18 06:05:32;;;;;;;24.85;13.93;;;;;;;6.52;57.98;100657.66;10478424;28;20119;-62
2023/04/18 06:10:34;;;;;;;19.10;12.77;;;;;;;6.76;57.83;100671.59;10473730;28;20044;-62
2023/04/18 06:15:39;;;;;;;17.77;13.80;;;;;;;6.91;57.66;100673.72;10474284;28;20047;-62
2023/04/18 06:20:42;;;;;;;20.65;14.52;;;;;;;7.16;57.21;100670.22;10473184;28;20050;-62
2023/04/18 06:25:44;;;;;;;22.38;14.00;;;;;;;7.25;56.95;100673.41;10476957;28;20258;-62
2023/04/18 06:30:46;;;;;;;16.98;12.18;;;;;;;7.66;56.79;100681.50;10475554;28;20056;-63
2023/04/18 06:35:48;;;;;;;19.20;13.48;;;;;;;8.01;56.38;100683.66;10477770;28;20151;-63
2023/04/18 06:40:50;;;;;;;19.48;13.13;;;;;;;8.33;55.78;100676.38;10479949;28;20665;-62
2023/04/18 06:45:51;;;;;;;17.60;12.80;;;;;;;8.44;55.23;100675.09;10476934;28;20051;-62
2023/04/18 06:50:53;;;;;;;18.45;12.85;;;;;;;8.63;55.40;100680.38;10477753;28;20052;-62
2023/04/18 06:55:55;;;;;;;16.33;12.40;;;;;;;8.56;55.22;100686.78;10473770;28;20127;-62
2023/04/18 07:00:57;;;;;;;15.32;11.93;;;;;;;8.59;55.17;100684.88;10474099;28;20040;-62
2023/04/18 07:05:59;;;;;;;18.40;12.23;;;;;;;8.62;55.27;100689.13;10463494;28;20036;-62
2023/04/18 07:11:01;;;;;;;14.13;10.82;;;;;;;8.71;55.04;100686.16;10473058;28;20049;-61
2023/04/18 07:16:03;;;;;;;14.77;10.98;;;;;;;8.78;54.49;100687.63;10473367;28;20045;-61
2023/04/18 07:21:08;;;;;;;16.88;10.32;;;;;;;8.69;54.63;100695.78;10473262;28;20045;-61
2023/04/18 07:26:12;;;;;;;14.82;9.68;;;;;;;8.64;54.78;100692.53;10474722;28;20063;-61
2023/04/18 07:31:15;;;;;;;12.23;9.00;;;;;;;8.63;54.94;100696.03;10473125;28;20166;-62
2023/04/18 07:36:17;;;;;;;13.57;9.80;;;;;;;8.47;55.19;100706.22;10477060;28;20522;-62
2023/04/18 07:41:19;;;;;;;13.40;9.65;;;;;;;8.47;55.08;100705.38;10470499;28;20534;-62
2023/04/18 07:46:21;;;;;;;12.10;8.85;;;;;;;8.59;54.87;100712.72;10456254;28;20059;-61
2023/04/18 07:51:25;;;;;;;13.02;9.27;;;;;;;8.75;54.64;100709.44;10475820;28;20052;-62
2023/04/18 07:56:27;;;;;;;15.43;9.10;;;;;;;8.88;54.26;100701.97;10473665;28;20042;-62
2023/04/18 08:01:29;;;;;;;11.93;8.98;;;;;;;8.94;54.26;100704.34;10453725;28;20047;-62
2023/04/18 08:06:31;;;;;;;10.95;8.30;;;;;;;9.37;53.92;100712.09;10470809;28;20047;-63
2023/04/18 08:11:33;;;;;;;13.25;9.90;;;;;;;9.68;53.01;100710.78;10470578;28;20147;-63
2023/04/18 08:16:35;;;;;;;13.85;9.45;;;;;;;10.10;52.62;100703.66;10471806;28;20234;-63
2023/04/18 08:21:38;;;;;;;12.75;9.45;;;;;;;10.37;51.53;100705.00;10473645;28;20121;-62
2023/04/18 08:26:39;;;;;;;12.80;9.50;;;;;;;10.30;51.62;100700.97;10471211;28;20052;-62
2023/04/18 08:31:41;;;;;;;11.60;9.38;;;;;;;10.21;51.88;100698.78;10472857;28;20075;-63
2023/04/18 08:36:43;;;;;;;12.80;10.18;;;;;;;10.34;51.81;100710.34;10487791;28;20501;-63
2023/04/18 08:41:52;;;;;;;13.90;10.45;;;;;;;10.05;52.53;100716.09;10483628;28;20585;-63
2023/04/18 08:46:55;;;;;;;14.85;10.52;;;;;;;9.88;53.25;100713.38;10479216;28;20485;-62
2023/04/18 08:51:59;;;;;;;12.55;9.90;;;;;;;10.48;52.23;100708.81;10492604;28;20056;-63
2023/04/18 08:57:07;;;;;;;14.15;10.40;;;;;;;10.93;51.82;100703.13;10487552;28;20506;-63
2023/04/18 09:02:10;;;;;;;13.95;11.02;;;;;;;11.23;50.95;100706.06;10497752;28;20044;-63
2023/04/18 09:07:14;;;;;;;11.93;10.15;;;;;;;11.54;50.37;100700.09;10488873;28;20437;-63
2023/04/18 09:12:22;;;;;;;14.30;10.48;;;;;;;11.77;49.30;100702.38;10468350;28;20546;-63
2023/04/18 09:17:45;;;;;;;13.57;10.15;;;;;;;11.92;50.04;100701.56;10457750;28;20072;-63
2023/04/18 09:22:51;;;;;;;14.43;11.10;;;;;;;12.07;49.21;100698.97;10472071;28;20452;-63
2023/04/18 09:27:53;;;;;;;13.63;10.40;;;;;;;12.13;49.33;100696.00;10502066;28;20606;-63
2023/04/18 09:32:59;;;;;;;13.70;11.60;;;;;;;12.28;48.59;100698.72;10509045;28;20039;-63
2023/04/18 09:38:01;;;;;;;12.68;10.27;;;;;;;12.29;48.60;100705.72;10510480;28;20101;-62
2023/04/18 09:43:19;;;;;;;13.73;10.50;;;;;;;11.62;49.31;100714.47;10515464;28;20048;-63
2023/04/18 09:48:21;;;;;;;12.75;10.27;;;;;;;11.91;49.58;100695.47;10489334;28;20377;-62
2023/04/18 09:53:23;;;;;;;16.98;10.43;;;;;;;11.79;49.33;100711.84;10499004;28;20036;-62
2023/04/18 09:58:31;;;;;;;13.50;9.45;;;;;;;11.68;49.78;100702.84;10516608;28;20214;-62
2023/04/18 10:03:43;;;;;;;12.90;8.95;;;;;;;11.76;49.88;100701.53;10507855;28;20762;-62
2023/04/18 10:08:47;;;;;;;12.57;8.57;;;;;;;12.09;49.56;100689.25;10512366;28;20921;-62
2023/04/18 10:13:54;;;;;;;12.13;7.85;;;;;;;12.10;48.54;100693.56;10485483;28;20051;-62
2023/04/18 10:18:57;;;;;;;10.52;7.65;;;;;;;11.79;49.77;100680.41;10484603;28;20128;-62
2023/04/18 10:23:59;;;;;;;11.88;7.90;;;;;;;11.94;49.84;100689.22;10485207;28;20144;-62
2023/04/18 10:29:01;;;;;;;10.65;6.95;;;;;;;12.27;49.24;100684.78;10498651;28;20059;-62
2023/04/18 10:34:05;;;;;;;10.27;7.57;;;;;;;12.10;49.56;100680.47;10486311;28;20044;-62
2023/04/18 10:39:24;;;;;;;10.68;7.45;;;;;;;12.69;48.50;100668.44;10481261;28;20067;-62
2023/04/18 10:44:26;;;;;;;8.80;6.50;;;;;;;13.10;48.19;100674.81;10513895;28;20131;-62
2023/04/18 10:49:30;;;;;;;9.15;6.60;;;;;;;13.50;47.38;100673.31;10491865;28;20051;-62
2023/04/18 10:54:42;;;;;;;10.50;6.65;;;;;;;13.55;47.72;100676.53;10506649;28;20072;-62
2023/04/18 10:59:49;;;;;;;7.22;5.70;;;;;;;13.68;47.30;100667.78;10484635;28;20047;-63
2023/04/18 11:05:05;;;;;;;9.10;6.35;;;;;;;13.67;46.93;100657.38;10502659;28;20466;-63
2023/04/18 11:10:08;;;;;;;8.80;5.57;;;;;;;13.56;47.61;100652.78;10506904;28;20080;-62
2023/04/18 11:15:21;;;;;;;8.35;5.90;;;;;;;13.83;47.03;100655.50;10501969;28;20048;-62
2023/04/18 11:20:23;;;;;;;6.75;4.90;;;;;;;14.55;45.90;100639.53;10494812;28;20045;-62
2023/04/18 11:25:30;;;;;;;7.75;4.97;;;;;;;14.63;45.43;100644.28;10503495;28;20135;-62
2023/04/18 11:30:37;;;;;;;7.13;4.93;;;;;;;14.23;45.77;100640.69;10503107;28;20420;-62
2023/04/18 11:35:43;;;;;;;6.50;5.05;;;;;;;13.62;46.05;100636.63;10473663;28;20079;-62
2023/04/18 11:40:49;;;;;;;8.30;5.15;;;;;;;13.87;46.26;100638.59;10494158;28;20127;-62
2023/04/18 11:45:58;;;;;;;8.60;5.00;;;;;;;14.50;46.23;100629.28;10504251;28;20083;-63
2023/04/18 11:51:00;;;;;;;6.20;4.53;;;;;;;14.65;45.04;100634.50;10486272;28;20084;-62
2023/04/18 11:56:03;;;;;;;9.60;4.65;;;;;;;14.47;44.78;100636.50;10470643;28;20408;-62
2023/04/18 12:01:18;;;;;;;9.50;5.05;;;;;;;13.93;45.84;100630.31;10493481;28;20304;-62
2023/04/18 12:06:21;;;;;;;9.77;4.93;;;;;;;13.73;46.99;100643.84;10485257;28;20041;-62
2023/04/18 12:11:25;;;;;;;8.30;5.28;;;;;;;13.93;46.44;100640.00;10481299;28;20040;-62
2023/04/18 12:16:27;;;;;;;8.13;5.63;;;;;;;14.04;45.74;100641.03;10470312;28;20143;-62
2023/04/18 12:21:31;;;;;;;8.73;5.82;;;;;;;14.18;45.42;100630.47;10479468;28;20397;-62
2023/04/18 12:26:33;;;;;;;8.70;6.47;;;;;;;14.10;45.39;100624.84;10470466;28;20472;-62
2023/04/18 12:31:35;;;;;;;8.68;6.68;;;;;;;14.04;45.84;100624.41;10485193;28;20143;-62
2023/04/18 12:36:37;;;;;;;8.88;6.50;;;;;;;14.30;45.41;100621.81;10451749;28;20419;-62
2023/04/18 12:41:39;;;;;;;9.20;6.65;;;;;;;14.14;45.59;100628.97;10469101;28;20044;-62
2023/04/18 12:46:40;;;;;;;10.48;7.88;;;;;;;14.10;45.62;100626.63;10465765;28;20651;-62
2023/04/18 12:51:43;;;;;;;11.63;9.43;;;;;;;13.84;46.21;100630.88;10485880;28;20106;-62
2023/04/18 12:56:45;;;;;;;10.43;7.05;;;;;;;13.65;46.16;100627.72;10466835;28;20585;-62
2023/04/18 13:01:47;;;;;;;9.85;6.65;;;;;;;13.69;46.35;100624.81;10481398;28;20068;-62
2023/04/18 13:06:48;;;;;;;9.05;7.10;;;;;;;13.71;46.13;100629.97;10449864;28;20137;-62
2023/04/18 13:11:50;;;;;;;9.30;7.40;;;;;;;13.95;45.50;100638.97;10446158;28;20067;-62
2023/04/18 13:16:52;;;;;;;7.88;6.20;;;;;;;13.93;45.17;100619.81;10463888;28;20044;-62
2023/04/18 13:21:54;;;;;;;8.63;6.50;;;;;;;14.19;44.58;100621.63;10468918;28;20521;-62
2023/04/18 13:26:56;;;;;;;8.90;6.50;;;;;;;14.26;44.85;100636.09;10466300;28;20079;-62
2023/04/18 13:31:58;;;;;;;9.30;7.18;;;;;;;14.38;44.52;100621.28;10466798;28;20056;-63
2023/04/18 13:37:00;;;;;;;9.68;7.55;;;;;;;14.58;44.47;100623.50;10485908;28;20215;-63
2023/04/18 13:42:03;;;;;;;10.60;7.50;;;;;;;14.76;44.64;100621.47;10468397;28;20484;-62
2023/04/18 13:47:06;;;;;;;10.23;7.15;;;;;;;14.91;43.48;100610.75;10488898;28;20131;-63
2023/04/18 13:52:08;;;;;;;9.07;7.55;;;;;;;14.69;43.11;100620.19;10473241;28;20044;-63
2023/04/18 13:57:10;;;;;;;9.70;7.97;;;;;;;14.35;44.24;100614.44;10486485;28;20054;-63
2023/04/18 14:02:12;;;;;;;11.55;8.75;;;;;;;14.38;44.31;100611.63;10504013;28;20040;-63
2023/04/18 14:07:14;;;;;;;11.80;8.43;;;;;;;14.48;44.14;100611.88;10491985;28;20087;-62
2023/04/18 14:12:16;;;;;;;11.32;8.15;;;;;;;15.12;42.91;100605.84;10477780;28;20059;-62
2023/04/18 14:17:17;;;;;;;11.05;9.38;;;;;;;15.40;42.27;100603.00;10466326;28;20051;-62
2023/04/18 14:22:19;;;;;;;10.50;8.93;;;;;;;15.12;42.49;100593.50;10487898;28;20052;-62
2023/04/18 14:27:21;;;;;;;11.38;9.95;;;;;;;15.00;42.48;100598.78;10470187;28;20033;-62
2023/04/18 14:32:23;;;;;;;12.38;9.30;;;;;;;15.23;42.85;100596.25;10470715;28;20448;-63
2023/04/18 14:37:25;;;;;;;9.88;8.82;;;;;;;15.33;42.39;100594.66;10505790;28;20173;-62
2023/04/18 14:42:27;;;;;;;10.93;8.52;;;;;;;15.70;42.05;100602.69;10476789;28;20036;-62
2023/04/18 14:47:30;;;;;;;9.95;8.52;;;;;;;15.30;42.51;100591.41;10484356;28;20111;-62
2023/04/18 14:52:32;;;;;;;11.10;9.30;;;;;;;15.13;42.81;100589.06;10474051;28;20186;-62
2023/04/18 14:57:35;;;;;;;10.68;9.05;;;;;;;15.30;42.25;100588.78;10478725;28;20036;-62
2023/04/18 15:02:38;;;;;;;9.60;8.27;;;;;;;15.28;42.39;100588.03;10473159;28;20436;-62
2023/04/18 15:07:42;;;;;;;10.57;8.65;;;;;;;14.87;42.83;100582.09;10488516;28;20052;-64
2023/04/18 15:12:45;;;;;;;12.00;8.98;;;;;;;15.20;42.99;100577.19;10467165;28;20518;-62
2023/04/18 15:17:47;;;;;;;11.27;8.98;;;;;;;14.93;43.21;100589.59;10492708;28;20045;-62
2023/04/18 15:22:49;;;;;;;12.15;8.30;;;;;;;14.69;43.82;100596.50;10496213;28;20040;-62
2023/04/18 15:27:51;;;;;;;10.25;8.48;;;;;;;14.88;43.57;100584.63;10468986;28;20114;-62
2023/04/18 15:32:53;;;;;;;10.93;8.48;;;;;;;15.16;43.21;100573.06;10466831;28;20400;-62
2023/04/18 15:37:56;;;;;;;12.27;8.82;;;;;;;14.96;42.67;100578.84;10465720;28;20049;-62
2023/04/18 15:42:58;;;;;;;10.38;8.40;;;;;;;15.43;43.00;100577.25;10467043;28;20044;-62
2023/04/18 15:48:00;;;;;;;9.45;8.05;;;;;;;15.33;42.80;100584.13;10467003;28;20048;-62
2023/04/18 15:53:02;;;;;;;10.52;7.97;;;;;;;15.32;42.79;100581.59;10467048;28;20047;-62
2023/04/18 15:58:05;;;;;;;9.73;7.88;;;;;;;15.08;43.19;100588.56;10468436;28;20039;-62
2023/04/18 16:03:09;;;;;;;8.15;7.20;;;;;;;15.37;42.04;100582.13;10462187;28;20329;-62
2023/04/18 16:08:11;;;;;;;9.75;6.82;;;;;;;15.03;41.62;100586.22;10459548;28;20085;-62
2023/04/18 16:13:12;;;;;;;8.73;7.13;;;;;;;14.61;42.89;100591.75;10464892;28;20127;-62
2023/04/18 16:18:14;;;;;;;8.77;6.80;;;;;;;14.38;43.79;100590.56;10470484;28;20040;-62
2023/04/18 16:23:16;;;;;;;9.25;6.55;;;;;;;14.30;43.54;100613.91;10485755;28;20047;-62
2023/04/18 16:28:18;;;;;;;8.20;6.85;;;;;;;13.85;44.13;100611.56;10465347;28;20459;-62
2023/04/18 16:33:23;;;;;;;8.63;6.25;;;;;;;13.75;44.28;100619.19;10462564;28;20055;-62
2023/04/18 16:38:26;;;;;;;8.20;6.10;;;;;;;13.51;44.61;100625.09;10466805;28;20493;-63
2023/04/18 16:43:29;;;;;;;8.20;6.32;;;;;;;13.13;45.12;100622.09;10482883;28;20048;-62
2023/04/18 16:48:31;;;;;;;8.15;6.35;;;;;;;13.12;45.05;100627.44;10500055;28;20113;-62
2023/04/18 16:53:33;;;;;;;9.18;6.15;;;;;;;13.02;45.20;100624.50;10488826;28;20048;-62
2023/04/18 16:58:35;;;;;;;7.65;5.82;;;;;;;13.05;45.62;100641.88;10475350;28;20117;-62
2023/04/18 17:03:37;;;;;;;9.68;5.38;;;;;;;13.03;45.00;100641.94;10485397;28;20064;-61
2023/04/18 17:08:39;;;;;;;8.13;5.93;;;;;;;12.88;45.33;100648.94;10460682;28;20044;-62
2023/04/18 17:13:41;;;;;;;7.07;5.43;;;;;;;12.69;45.44;100645.69;10487194;28;20044;-62
2023/04/18 17:18:43;;;;;;;7.82;5.25;;;;;;;12.76;45.17;100636.50;10471110;28;20044;-62
2023/04/18 17:23:44;;;;;;;8.15;5.35;;;;;;;12.86;45.53;100658.66;10485071;28;20048;-63
2023/04/18 17:28:46;;;;;;;7.63;5.22;;;;;;;12.67;45.33;100663.31;10470074;28;20066;-62
2023/04/18 17:33:49;;;;;;;7.88;5.68;;;;;;;12.61;45.71;100650.53;10489075;28;20041;-62
2023/04/18 17:38:51;;;;;;;8.32;6.18;;;;;;;12.55;45.93;100656.13;10483578;28;20450;-62
2023/04/18 17:43:53;;;;;;;10.02;5.60;;;;;;;12.52;46.09;100669.41;10487655;28;20530;-63
2023/04/18 17:48:55;;;;;;;8.07;5.35;;;;;;;12.36;46.67;100665.09;10467378;28;20052;-63
2023/04/18 17:54:00;;;;;;;7.88;5.47;;;;;;;12.49;46.55;100674.84;10484412;28;20048;-63
2023/04/18 17:59:02;;;;;;;8.77;5.78;;;;;;;12.52;46.62;100666.78;10451205;28;20070;-63
2023/04/18 18:04:04;;;;;;;7.20;5.32;;;;;;;12.47;46.84;100683.72;10473642;28;20048;-63
2023/04/18 18:09:07;;;;;;;8.57;5.95;;;;;;;12.22;47.19;100686.81;10478657;28;20048;-63
2023/04/18 18:14:09;;;;;;;8.95;6.15;;;;;;;12.33;46.94;100676.63;10474093;28;20044;-63
2023/04/18 18:19:12;;;;;;;7.85;6.20;;;;;;;12.17;47.32;100688.00;10476886;28;20044;-62
2023/04/18 18:24:17;;;;;;;8.23;6.15;;;;;;;12.17;47.53;100701.97;10481575;28;20052;-62
2023/04/18 18:29:19;;;;;;;9.23;6.07;;;;;;;12.04;47.76;100696.53;10455699;28;20140;-63
2023/04/18 18:34:21;;;;;;;9.15;5.60;;;;;;;12.06;47.77;100699.06;10467827;28;20036;-62
2023/04/18 18:39:23;;;;;;;11.00;6.47;;;;;;;12.10;48.17;100696.19;10467800;28;20054;-62
2023/04/18 18:44:25;;;;;;;8.48;6.15;;;;;;;12.08;48.02;100705.91;10464601;28;20479;-64
2023/04/18 18:49:27;;;;;;;7.90;5.70;;;;;;;12.03;47.87;100705.31;10472394;28;20509;-61
2023/04/18 18:54:29;;;;;;;9.50;6.00;;;;;;;11.90;48.60;100719.16;10476068;28;20044;-61
2023/04/18 18:59:32;;;;;;;11.18;6.70;;;;;;;11.62;48.71;100727.59;10474203;28;20051;-61
2023/04/18 19:04:33;;;;;;;9.63;6.75;;;;;;;11.66;48.85;100728.28;10455979;28;20905;-61
2023/04/18 19:09:35;;;;;;;9.85;6.90;;;;;;;11.89;48.58;100733.16;10473608;28;20138;-61
2023/04/18 19:14:37;;;;;;;9.95;6.70;;;;;;;11.84;48.99;100732.56;10472604;28;20544;-61
2023/04/18 19:19:42;;;;;;;8.65;6.63;;;;;;;11.95;49.19;100738.09;10457691;28;20564;-61
2023/04/18 19:24:44;;;;;;;8.45;6.80;;;;;;;12.08;48.95;100737.38;10472972;28;20493;-61
2023/04/18 19:29:45;;;;;;;9.27;7.10;;;;;;;12.04;48.90;100737.63;10475483;28;20045;-61
2023/04/18 19:34:47;;;;;;;9.52;6.82;;;;;;;11.94;49.23;100744.28;10473465;28;20049;-61
2023/04/18 19:39:49;;;;;;;10.70;7.10;;;;;;;11.90;49.41;100745.38;10488843;28;20059;-61
2023/04/18 19:44:51;;;;;;;9.68;6.95;;;;;;;11.74;49.74;100749.72;10485982;28;20431;-62
2023/04/18 19:49:53;;;;;;;10.63;7.50;;;;;;;11.65;50.23;100760.66;10472281;28;20098;-61
2023/04/18 19:54:54;;;;;;;10.65;7.55;;;;;;;11.49;50.34;100750.09;10476838;28;20230;-61
2023/04/18 19:59:56;;;;;;;11.82;7.70;;;;;;;11.49;50.00;100757.09;10456071;28;20053;-61
2023/04/18 20:04:58;;;;;;;10.75;7.70;;;;;;;11.33;50.88;100759.66;10473548;28;20043;-61
2023/04/18 20:10:00;;;;;;;9.93;7.70;;;;;;;11.24;51.28;100760.97;10472287;28;20097;-61
2023/04/18 20:15:02;;;;;;;10.02;7.90;;;;;;;11.34;51.26;100760.50;10472636;28;20041;-61
2023/04/18 20:20:07;;;;;;;10.27;7.78;;;;;;;11.37;50.95;100760.34;10471177;28;20071;-61
2023/04/18 20:25:09;;;;;;;11.70;8.45;;;;;;;11.32;51.69;100763.19;10470387;28;20036;-61
2023/04/18 20:30:11;;;;;;;12.40;7.85;;;;;;;11.41;51.59;100756.66;10469841;28;20052;-61
2023/04/18 20:35:13;;;;;;;9.20;7.45;;;;;;;11.42;51.44;100756.56;10470349;28;20531;-61
2023/04/18 20:40:15;;;;;;;9.15;7.18;;;;;;;11.32;51.73;100751.88;10486744;27;20044;-61
2023/04/18 20:45:17;;;;;;;10.90;7.20;;;;;;;11.40;51.92;100749.72;10469205;28;20123;-61
2023/04/18 20:50:19;;;;;;;9.65;7.28;;;;;;;11.40;51.72;100760.22;10467088;28;20052;-61
2023/04/18 20:55:21;;;;;;;9.60;6.60;;;;;;;11.38;51.83;100755.03;10469405;28;20072;-61
2023/04/18 21:00:23;;;;;;;11.60;6.95;;;;;;;11.19;52.28;100757.69;10490607;28;20055;-60
2023/04/18 21:05:25;;;;;;;8.77;6.47;;;;;;;11.16;52.58;100757.00;10470778;28;20083;-61
2023/04/18 21:10:26;;;;;;;10.75;7.32;;;;;;;11.20;52.45;100759.41;10472876;28;20666;-61
2023/04/18 21:15:28;;;;;;;8.80;6.97;;;;;;;11.33;52.38;100759.66;10468207;28;20105;-61
2023/04/18 21:20:30;;;;;;;9.30;6.97;;;;;;;11.20;52.53;100767.28;10470184;28;20349;-61
2023/04/18 21:25:32;;;;;;;8.30;6.25;;;;;;;11.13;52.80;100759.81;10468595;28;20416;-61
2023/04/18 21:30:34;;;;;;;7.95;6.05;;;;;;;11.05;53.23;100754.91;10460212;28;20056;-61
2023/04/18 21:35:35;;;;;;;9.68;6.80;;;;;;;11.04;53.24;100762.84;10476257;28;20082;-61
2023/04/18 21:40:37;;;;;;;10.02;6.70;;;;;;;11.12;52.94;100772.03;10478013;28;20044;-62
2023/04/18 21:45:39;;;;;;;9.70;5.93;;;;;;;11.24;53.01;100774.03;10477167;28;20047;-61
2023/04/18 21:50:41;;;;;;;8.68;6.00;;;;;;;11.13;53.18;100768.47;10477279;28;20522;-61
2023/04/18 21:55:43;;;;;;;8.20;5.75;;;;;;;11.05;53.44;100770.63;10491783;28;20502;-62
2023/04/18 22:00:45;;;;;;;8.48;5.95;;;;;;;11.06;53.63;100767.09;10481845;28;20040;-62
2023/04/18 22:05:47;;;;;;;7.93;5.68;;;;;;;11.05;53.64;100772.41;10475715;28;20086;-62
2023/04/18 22:10:49;;;;;;;7.20;5.72;;;;;;;11.00;53.74;100766.50;10476584;28;20500;-61
2023/04/18 22:15:51;;;;;;;8.45;6.25;;;;;;;10.87;54.03;100776.69;10474087;28;20045;-62
2023/04/18 22:20:53;;;;;;;7.30;5.80;;;;;;;10.85;54.20;100773.31;10479629;28;20040;-61
2023/04/18 22:25:55;;;;;;;7.88;5.68;;;;;;;10.81;54.50;100763.91;10458315;28;20361;-62
2023/04/18 22:30:57;;;;;;;8.45;5.80;;;;;;;10.99;54.24;100759.59;10474081;28;20812;-62
2023/04/18 22:35:59;;;;;;;8.68;5.90;;;;;;;10.95;54.39;100763.28;10475231;28;20069;-61
2023/04/18 22:41:01;;;;;;;7.60;5.88;;;;;;;10.89;54.50;100766.19;10475126;28;21264;-62
2023/04/18 22:46:03;;;;;;;9.27;5.70;;;;;;;10.75;54.86;100761.59;10475903;28;20038;-62
2023/04/18 22:51:05;;;;;;;7.35;5.22;;;;;;;10.95;54.53;100764.09;10458512;28;20048;-61
2023/04/18 22:56:06;;;;;;;7.35;5.45;;;;;;;10.99;54.45;100776.13;10460460;28;20047;-61
2023/04/18 23:01:08;;;;;;;8.98;4.90;;;;;;;11.00;54.01;100767.34;10478690;28;20047;-61
2023/04/18 23:06:10;;;;;;;7.10;4.93;;;;;;;10.99;54.46;100764.81;10456599;28;20094;-61